sensor_id;sensor_type;location;lat;lon;timestamp;pressure;altitude;pressure_sealevel;temperature;humidity
28927;BME280;16038;47.692;9.400;2023-02-02T00:01:40;97513.84;;;3.48;89.06
28927;BME280;16038;47.692;9.400;2023-02-02T00:04:06;97517.34;;;3.48;89.51
28927;BME280;16038;47.692;9.400;2023-02-02T00:06:32;97518.72;;;3.45;89.00
28927;BME280;16038;47.692;9.400;2023-02-02T00:08:58;97495.09;;;3.51;89.15
28927;BME280;16038;47.692;9.400;2023-02-02T00:11:24;97488.53;;;3.52;89.21
28927;BME280;16038;47.692;9.400;2023-02-02T00:13:49;97479.72;;;3.47;89.58
28927;BME280;16038;47.692;9.400;2023-02-02T00:18:55;97476.50;;;3.44;89.43
28927;BME280;16038;47.692;9.400;2023-02-02T00:21:21;97489.66;;;3.51;88.78
28927;BME280;16038;47.692;9.400;2023-02-02T00:23:47;97484.75;;;3.53;88.42
28927;BME280;16038;47.692;9.400;2023-02-02T00:26:12;97476.31;;;3.55;88.24
28927;BME280;16038;47.692;9.400;2023-02-02T00:28:37;97483.13;;;3.66;87.77
28927;BME280;16038;47.692;9.400;2023-02-02T00:31:02;97491.44;;;3.56;87.76
28927;BME280;16038;47.692;9.400;2023-02-02T00:33:28;97484.75;;;3.53;87.84
28927;BME280;16038;47.692;9.400;2023-02-02T00:35:53;97489.88;;;3.55;88.11
28927;BME280;16038;47.692;9.400;2023-02-02T00:38:18;97487.94;;;3.55;88.21
28927;BME280;16038;47.692;9.400;2023-02-02T00:40:44;97496.56;;;3.57;87.74
28927;BME280;16038;47.692;9.400;2023-02-02T00:43:09;97493.38;;;3.55;87.91
28927;BME280;16038;47.692;9.400;2023-02-02T00:45:35;97488.34;;;3.49;88.62
28927;BME280;16038;47.692;9.400;2023-02-02T00:48:00;97487.94;;;3.55;88.22
28927;BME280;16038;47.692;9.400;2023-02-02T00:50:26;97466.09;;;3.52;88.12
28927;BME280;16038;47.692;9.400;2023-02-02T00:52:51;97461.34;;;3.57;87.75
28927;BME280;16038;47.692;9.400;2023-02-02T00:55:16;97468.88;;;3.60;88.35
28927;BME280;16038;47.692;9.400;2023-02-02T00:57:41;97491.44;;;3.56;87.97
28927;BME280;16038;47.692;9.400;2023-02-02T01:00:10;97490.06;;;3.58;87.80
28927;BME280;16038;47.692;9.400;2023-02-02T01:02:36;97496.06;;;3.55;87.40
28927;BME280;16038;47.692;9.400;2023-02-02T01:05:01;97498.59;;;3.52;87.97
28927;BME280;16038;47.692;9.400;2023-02-02T01:07:26;97493.97;;;3.52;88.29
28927;BME280;16038;47.692;9.400;2023-02-02T01:09:52;97493.56;;;3.59;88.09
28927;BME280;16038;47.692;9.400;2023-02-02T01:12:17;97496.38;;;3.54;88.14
28927;BME280;16038;47.692;9.400;2023-02-02T01:14:42;97481.22;;;3.53;88.07
28927;BME280;16038;47.692;9.400;2023-02-02T01:17:08;97490.94;;;3.54;87.90
28927;BME280;16038;47.692;9.400;2023-02-02T01:19:33;97478.84;;;3.51;88.25
28927;BME280;16038;47.692;9.400;2023-02-02T01:21:58;97469.78;;;3.56;88.36
28927;BME280;16038;47.692;9.400;2023-02-02T01:24:24;97486.03;;;3.56;87.84
28927;BME280;16038;47.692;9.400;2023-02-02T01:26:49;97482.13;;;3.48;88.71
28927;BME280;16038;47.692;9.400;2023-02-02T01:29:14;97488.53;;;3.52;88.21
28927;BME280;16038;47.692;9.400;2023-02-02T01:31:40;97479.72;;;3.47;88.56
28927;BME280;16038;47.692;9.400;2023-02-02T01:34:06;97483.22;;;3.47;89.23
28927;BME280;16038;47.692;9.400;2023-02-02T01:36:32;97492.38;;;3.51;89.24
28927;BME280;16038;47.692;9.400;2023-02-02T01:38:57;97501.59;;;3.50;89.38
28927;BME280;16038;47.692;9.400;2023-02-02T01:41:23;97497.78;;;3.51;89.41
28927;BME280;16038;47.692;9.400;2023-02-02T01:43:53;97499.56;;;3.56;89.41
28927;BME280;16038;47.692;9.400;2023-02-02T01:46:26;97511.53;;;3.55;89.48
28927;BME280;16038;47.692;9.400;2023-02-02T01:49:02;97507.72;;;3.56;89.70
28927;BME280;16038;47.692;9.400;2023-02-02T01:51:31;97527.16;;;3.58;89.89
28927;BME280;16038;47.692;9.400;2023-02-02T01:53:58;97521.34;;;3.51;90.25
28927;BME280;16038;47.692;9.400;2023-02-02T01:56:26;97514.03;;;3.51;90.23
28927;BME280;16038;47.692;9.400;2023-02-02T01:58:52;97524.34;;;3.49;90.28
28927;BME280;16038;47.692;9.400;2023-02-02T02:01:17;97512.13;;;3.52;90.60
28927;BME280;16038;47.692;9.400;2023-02-02T02:03:42;97511.00;;;3.53;90.13
28927;BME280;16038;47.692;9.400;2023-02-02T02:06:12;97509.53;;;3.60;89.65
28927;BME280;16038;47.692;9.400;2023-02-02T02:11:13;97507.50;;;3.52;89.76
28927;BME280;16038;47.692;9.400;2023-02-02T02:13:38;97508.00;;;3.54;89.98
28927;BME280;16038;47.692;9.400;2023-02-02T02:32:45;97526.16;;;3.54;90.62
28927;BME280;16038;47.692;9.400;2023-02-02T02:35:19;97508.00;;;3.54;90.99
28927;BME280;16038;47.692;9.400;2023-02-02T02:37:56;97501.50;;;3.55;90.88
28927;BME280;16038;47.692;9.400;2023-02-02T02:40:44;97495.97;;;3.47;91.95
28927;BME280;16038;47.692;9.400;2023-02-02T02:43:12;97500.16;;;3.53;92.28
28927;BME280;16038;47.692;9.400;2023-02-02T02:45:39;97497.59;;;3.48;92.59
28927;BME280;16038;47.692;9.400;2023-02-02T02:48:06;97489.97;;;3.50;92.44
28927;BME280;16038;47.692;9.400;2023-02-02T02:50:34;97499.28;;;3.57;92.78
28927;BME280;16038;47.692;9.400;2023-02-02T02:53:02;97488.13;;;3.45;93.73
28927;BME280;16038;47.692;9.400;2023-02-02T02:55:31;97501.47;;;3.41;94.29
28927;BME280;16038;47.692;9.400;2023-02-02T02:58:44;97497.97;;;3.41;94.57
28927;BME280;16038;47.692;9.400;2023-02-02T03:01:01;97487.16;;;3.41;95.20
28927;BME280;16038;47.692;9.400;2023-02-02T03:06:34;97501.69;;;3.45;95.09
28927;BME280;16038;47.692;9.400;2023-02-02T03:09:05;97497.97;;;3.41;96.04
28927;BME280;16038;47.692;9.400;2023-02-02T03:11:33;97502.69;;;3.35;96.45
28927;BME280;16038;47.692;9.400;2023-02-02T03:13:59;97501.78;;;3.40;96.64
28927;BME280;16038;47.692;9.400;2023-02-02T03:16:25;97485.41;;;3.31;97.45
28927;BME280;16038;47.692;9.400;2023-02-02T03:18:50;97479.78;;;3.28;97.98
28927;BME280;16038;47.692;9.400;2023-02-02T03:21:15;97497.75;;;3.23;99.23
28927;BME280;16038;47.692;9.400;2023-02-02T03:23:41;97504.78;;;3.24;99.96
28927;BME280;16038;47.692;9.400;2023-02-02T03:26:06;97510.13;;;3.30;100.00
28927;BME280;16038;47.692;9.400;2023-02-02T03:28:31;97507.09;;;3.31;100.00
28927;BME280;16038;47.692;9.400;2023-02-02T03:30:57;97507.09;;;3.17;100.00
28927;BME280;16038;47.692;9.400;2023-02-02T03:33:25;97508.97;;;3.17;100.00
28927;BME280;16038;47.692;9.400;2023-02-02T03:35:50;97495.75;;;3.15;100.00
28927;BME280;16038;47.692;9.400;2023-02-02T03:38:15;97496.94;;;3.09;100.00
28927;BME280;16038;47.692;9.400;2023-02-02T03:40:40;97497.00;;;3.04;100.00
28927;BME280;16038;47.692;9.400;2023-02-02T03:43:06;97502.31;;;2.95;100.00
28927;BME280;16038;47.692;9.400;2023-02-02T03:45:31;97516.25;;;3.02;100.00
28927;BME280;16038;47.692;9.400;2023-02-02T03:47:59;97518.97;;;3.02;100.00
28927;BME280;16038;47.692;9.400;2023-02-02T03:50:24;97520.00;;;3.06;100.00
28927;BME280;16038;47.692;9.400;2023-02-02T03:52:50;97511.25;;;2.96;100.00
28927;BME280;16038;47.692;9.400;2023-02-02T03:55:15;97506.34;;;2.98;100.00
28927;BME280;16038;47.692;9.400;2023-02-02T03:57:40;97512.91;;;2.92;100.00
28927;BME280;16038;47.692;9.400;2023-02-02T04:00:06;97525.38;;;2.93;100.00
28927;BME280;16038;47.692;9.400;2023-02-02T04:02:31;97515.84;;;2.95;100.00
28927;BME280;16038;47.692;9.400;2023-02-02T04:04:56;97525.16;;;2.89;100.00
28927;BME280;16038;47.692;9.400;2023-02-02T04:07:22;97514.81;;;2.91;100.00
28927;BME280;16038;47.692;9.400;2023-02-02T04:09:47;97520.03;;;2.87;100.00
28927;BME280;16038;47.692;9.400;2023-02-02T04:12:12;97516.66;;;2.96;100.00
28927;BME280;16038;47.692;9.400;2023-02-02T04:14:38;97524.69;;;3.01;100.00
28927;BME280;16038;47.692;9.400;2023-02-02T04:17:03;97515.94;;;2.90;100.00
28927;BME280;16038;47.692;9.400;2023-02-02T04:19:29;97522.81;;;2.82;100.00
28927;BME280;16038;47.692;9.400;2023-02-02T04:21:54;97530.06;;;2.87;100.00
28927;BME280;16038;47.692;9.400;2023-02-02T04:24:19;97531.16;;;2.86;100.00
28927;BME280;16038;47.692;9.400;2023-02-02T04:26:44;97531.97;;;2.86;100.00
28927;BME280;16038;47.692;9.400;2023-02-02T04:29:10;97539.97;;;2.92;100.00
28927;BME280;16038;47.692;9.400;2023-02-02T04:31:35;97536.78;;;2.90;100.00
28927;BME280;16038;47.692;9.400;2023-02-02T04:34:00;97543.50;;;2.92;100.00
28927;BME280;16038;47.692;9.400;2023-02-02T04:36:26;97543.09;;;2.99;100.00
28927;BME280;16038;47.692;9.400;2023-02-02T04:38:51;97542.91;;;2.95;100.00
28927;BME280;16038;47.692;9.400;2023-02-02T04:41:17;97553.63;;;3.00;100.00
28927;BME280;16038;47.692;9.400;2023-02-02T04:43:45;97551.84;;;2.96;100.00
28927;BME280;16038;47.692;9.400;2023-02-02T04:46:10;97543.88;;;2.85;100.00
28927;BME280;16038;47.692;9.400;2023-02-02T04:48:36;97543.09;;;2.85;100.00
28927;BME280;16038;47.692;9.400;2023-02-02T04:51:05;97549.88;;;2.82;100.00
28927;BME280;16038;47.692;9.400;2023-02-02T04:53:31;97548.22;;;2.86;100.00
28927;BME280;16038;47.692;9.400;2023-02-02T04:55:57;97548.28;;;2.81;100.00
28927;BME280;16038;47.692;9.400;2023-02-02T04:58:22;97531.75;;;2.83;100.00
28927;BME280;16038;47.692;9.400;2023-02-02T05:00:48;97530.34;;;2.85;100.00
28927;BME280;16038;47.692;9.400;2023-02-02T05:03:13;97536.25;;;2.87;100.00
28927;BME280;16038;47.692;9.400;2023-02-02T05:05:38;97537.06;;;2.88;100.00
28927;BME280;16038;47.692;9.400;2023-02-02T05:08:03;97532.25;;;2.85;100.00
28927;BME280;16038;47.692;9.400;2023-02-02T05:10:29;97539.47;;;2.90;100.00
28927;BME280;16038;47.692;9.400;2023-02-02T05:12:54;97546.38;;;2.82;100.00
28927;BME280;16038;47.692;9.400;2023-02-02T05:15:20;97533.13;;;2.80;100.00
28927;BME280;16038;47.692;9.400;2023-02-02T05:17:46;97532.34;;;2.80;100.00
28927;BME280;16038;47.692;9.400;2023-02-02T05:20:12;97530.06;;;2.87;100.00
28927;BME280;16038;47.692;9.400;2023-02-02T05:22:37;97534.34;;;2.88;100.00
28927;BME280;16038;47.692;9.400;2023-02-02T05:25:04;97525.16;;;2.89;100.00
28927;BME280;16038;47.692;9.400;2023-02-02T05:27:30;97548.91;;;2.92;100.00
28927;BME280;16038;47.692;9.400;2023-02-02T05:29:55;97547.81;;;2.93;100.00
28927;BME280;16038;47.692;9.400;2023-02-02T05:32:20;97538.38;;;2.91;100.00
28927;BME280;16038;47.692;9.400;2023-02-02T05:34:46;97537.41;;;3.00;100.00
28927;BME280;16038;47.692;9.400;2023-02-02T05:37:11;97536.44;;;3.10;100.00
28927;BME280;16038;47.692;9.400;2023-02-02T05:39:36;97528.03;;;3.12;100.00
28927;BME280;16038;47.692;9.400;2023-02-02T05:42:02;97538.66;;;3.08;100.00
28927;BME280;16038;47.692;9.400;2023-02-02T05:44:27;97535.81;;;2.99;100.00
28927;BME280;16038;47.692;9.400;2023-02-02T05:46:52;97541.81;;;2.96;100.00
28927;BME280;16038;47.692;9.400;2023-02-02T05:49:17;97543.09;;;2.99;100.00
28927;BME280;16038;47.692;9.400;2023-02-02T05:51:46;97539.69;;;2.93;100.00
28927;BME280;16038;47.692;9.400;2023-02-02T05:54:12;97549.84;;;3.01;100.00
28927;BME280;16038;47.692;9.400;2023-02-02T05:56:41;97547.06;;;3.06;100.00
28927;BME280;16038;47.692;9.400;2023-02-02T05:59:06;97553.78;;;3.09;100.00
28927;BME280;16038;47.692;9.400;2023-02-02T06:01:32;97543.44;;;3.11;100.00
28927;BME280;16038;47.692;9.400;2023-02-02T06:03:58;97552.25;;;3.03;100.00
28927;BME280;16038;47.692;9.400;2023-02-02T06:06:23;97550.94;;;3.00;100.00
28927;BME280;16038;47.692;9.400;2023-02-02T06:08:48;97540.09;;;3.00;100.00
28927;BME280;16038;47.692;9.400;2023-02-02T06:11:16;97549.94;;;2.96;100.00
28927;BME280;16038;47.692;9.400;2023-02-02T06:13:41;97548.31;;;2.95;100.00
28927;BME280;16038;47.692;9.400;2023-02-02T06:16:07;97546.63;;;2.99;100.00
28927;BME280;16038;47.692;9.400;2023-02-02T06:18:33;97565.38;;;2.96;100.00
28927;BME280;16038;47.692;9.400;2023-02-02T06:20:59;97560.75;;;2.96;100.00
28927;BME280;16038;47.692;9.400;2023-02-02T06:23:25;97558.19;;;3.05;100.00
28927;BME280;16038;47.692;9.400;2023-02-02T06:25:50;97571.72;;;3.05;100.00
28927;BME280;16038;47.692;9.400;2023-02-02T06:28:16;97572.28;;;3.02;100.00
28927;BME280;16038;47.692;9.400;2023-02-02T06:30:41;97585.09;;;3.15;100.00
28927;BME280;16038;47.692;9.400;2023-02-02T06:33:06;97577.63;;;3.07;100.00
28927;BME280;16038;47.692;9.400;2023-02-02T06:35:32;97578.72;;;3.06;100.00
28927;BME280;16038;47.692;9.400;2023-02-02T06:37:57;97576.63;;;3.03;100.00
28927;BME280;16038;47.692;9.400;2023-02-02T06:40:23;97560.25;;;2.94;100.00
28927;BME280;16038;47.692;9.400;2023-02-02T06:42:54;97581.09;;;2.94;100.00
28927;BME280;16038;47.692;9.400;2023-02-02T06:45:19;97578.59;;;2.97;100.00
28927;BME280;16038;47.692;9.400;2023-02-02T06:47:44;97571.50;;;3.01;100.00
28927;BME280;16038;47.692;9.400;2023-02-02T06:50:09;97579.13;;;2.99;100.00
28927;BME280;16038;47.692;9.400;2023-02-02T06:52:35;97590.22;;;2.98;100.00
28927;BME280;16038;47.692;9.400;2023-02-02T06:55:00;97576.41;;;2.99;100.00
28927;BME280;16038;47.692;9.400;2023-02-02T06:57:25;97577.91;;;3.05;100.00
28927;BME280;16038;47.692;9.400;2023-02-02T06:59:51;97561.88;;;3.09;100.00
28927;BME280;16038;47.692;9.400;2023-02-02T07:02:16;97574.91;;;3.07;100.00
28927;BME280;16038;47.692;9.400;2023-02-02T07:04:41;97580.19;;;2.98;100.00
28927;BME280;16038;47.692;9.400;2023-02-02T07:07:07;97573.09;;;3.02;100.00
28927;BME280;16038;47.692;9.400;2023-02-02T07:09:32;97585.66;;;3.12;100.00
28927;BME280;16038;47.692;9.400;2023-02-02T07:11:58;97579.97;;;3.14;100.00
28927;BME280;16038;47.692;9.400;2023-02-02T07:14:23;97586.47;;;3.13;100.00
28927;BME280;16038;47.692;9.400;2023-02-02T07:16:49;97591.44;;;3.05;100.00
28927;BME280;16038;47.692;9.400;2023-02-02T07:19:14;97597.97;;;3.04;100.00
28927;BME280;16038;47.692;9.400;2023-02-02T07:21:39;97597.97;;;3.04;100.00
28927;BME280;16038;47.692;9.400;2023-02-02T07:24:05;97593.56;;;3.09;100.00
28927;BME280;16038;47.692;9.400;2023-02-02T07:26:32;97580.53;;;3.11;100.00
28927;BME280;16038;47.692;9.400;2023-02-02T07:28:58;97598.47;;;3.06;100.00
28927;BME280;16038;47.692;9.400;2023-02-02T07:31:24;97596.19;;;3.14;100.00
28927;BME280;16038;47.692;9.400;2023-02-02T07:33:50;97598.84;;;3.19;100.00
28927;BME280;16038;47.692;9.400;2023-02-02T07:36:17;97594.28;;;3.14;100.00
28927;BME280;16038;47.692;9.400;2023-02-02T07:38:43;97610.09;;;3.07;100.00
28927;BME280;16038;47.692;9.400;2023-02-02T07:41:08;97609.03;;;3.08;100.00
28927;BME280;16038;47.692;9.400;2023-02-02T07:43:33;97618.16;;;3.12;100.00
28927;BME280;16038;47.692;9.400;2023-02-02T07:45:59;97604.69;;;3.07;100.00
28927;BME280;16038;47.692;9.400;2023-02-02T07:48:27;97593.00;;;3.12;100.00
28927;BME280;16038;47.692;9.400;2023-02-02T07:50:52;97600.50;;;3.15;100.00
28927;BME280;16038;47.692;9.400;2023-02-02T07:53:17;97606.22;;;3.13;100.00
28927;BME280;16038;47.692;9.400;2023-02-02T07:55:43;97604.03;;;3.15;100.00
28927;BME280;16038;47.692;9.400;2023-02-02T07:58:08;97606.00;;;3.10;100.00
28927;BME280;16038;47.692;9.400;2023-02-02T08:00:34;97605.69;;;3.11;100.00
28927;BME280;16038;47.692;9.400;2023-02-02T08:03:00;97614.03;;;3.15;100.00
28927;BME280;16038;47.692;9.400;2023-02-02T08:05:25;97617.66;;;3.24;100.00
28927;BME280;16038;47.692;9.400;2023-02-02T08:07:50;97604.75;;;3.21;100.00
28927;BME280;16038;47.692;9.400;2023-02-02T08:10:16;97596.00;;;3.24;100.00
28927;BME280;16038;47.692;9.400;2023-02-02T08:12:41;97604.66;;;3.26;100.00
28927;BME280;16038;47.692;9.400;2023-02-02T08:15:06;97615.09;;;3.33;100.00
28927;BME280;16038;47.692;9.400;2023-02-02T08:17:32;97616.28;;;3.27;100.00
28927;BME280;16038;47.692;9.400;2023-02-02T08:19:57;97618.78;;;3.23;100.00
28927;BME280;16038;47.692;9.400;2023-02-02T08:22:22;97647.66;;;3.28;100.00
28927;BME280;16038;47.692;9.400;2023-02-02T08:24:47;97635.97;;;3.32;100.00
28927;BME280;16038;47.692;9.400;2023-02-02T08:27:14;97632.25;;;3.28;100.00
28927;BME280;16038;47.692;9.400;2023-02-02T08:29:39;97639.47;;;3.33;100.00
28927;BME280;16038;47.692;9.400;2023-02-02T08:32:04;97642.00;;;3.43;100.00
28927;BME280;16038;47.692;9.400;2023-02-02T08:34:30;97657.97;;;3.44;100.00
28927;BME280;16038;47.692;9.400;2023-02-02T08:36:55;97646.22;;;3.49;100.00
28927;BME280;16038;47.692;9.400;2023-02-02T08:39:21;97654.34;;;3.49;100.00
28927;BME280;16038;47.692;9.400;2023-02-02T08:41:46;97655.56;;;3.43;100.00
28927;BME280;16038;47.692;9.400;2023-02-02T08:44:15;97658.25;;;3.43;100.00
28927;BME280;16038;47.692;9.400;2023-02-02T08:46:40;97653.84;;;3.47;100.00
28927;BME280;16038;47.692;9.400;2023-02-02T08:49:05;97633.31;;;3.46;100.00
28927;BME280;16038;47.692;9.400;2023-02-02T08:51:31;97662.19;;;3.51;100.00
28927;BME280;16038;47.692;9.400;2023-02-02T08:53:56;97657.81;;;3.55;100.00
28927;BME280;16038;47.692;9.400;2023-02-02T08:56:21;97654.88;;;3.51;100.00
28927;BME280;16038;47.692;9.400;2023-02-02T08:58:51;97651.84;;;3.53;100.00
28927;BME280;16038;47.692;9.400;2023-02-02T09:01:17;97641.03;;;3.53;100.00
28927;BME280;16038;47.692;9.400;2023-02-02T09:03:43;97655.31;;;3.58;100.00
28927;BME280;16038;47.692;9.400;2023-02-02T09:06:10;97651.78;;;3.58;100.00
28927;BME280;16038;47.692;9.400;2023-02-02T09:08:36;97647.06;;;3.63;100.00
28927;BME280;16038;47.692;9.400;2023-02-02T09:11:12;97639.75;;;3.64;100.00
28927;BME280;16038;47.692;9.400;2023-02-02T09:13:38;97638.34;;;3.67;100.00
28927;BME280;16038;47.692;9.400;2023-02-02T09:16:07;97638.66;;;3.65;100.00
28927;BME280;16038;47.692;9.400;2023-02-02T09:18:32;97651.09;;;3.66;100.00
28927;BME280;16038;47.692;9.400;2023-02-02T09:20:58;97653.50;;;3.68;100.00
28927;BME280;16038;47.692;9.400;2023-02-02T09:23:24;97655.81;;;3.74;100.00
28927;BME280;16038;47.692;9.400;2023-02-02T09:25:50;97661.16;;;3.79;99.91
28927;BME280;16038;47.692;9.400;2023-02-02T09:28:15;97671.19;;;3.79;99.80
28927;BME280;16038;47.692;9.400;2023-02-02T09:30:40;97674.78;;;3.74;99.89
28927;BME280;16038;47.692;9.400;2023-02-02T09:33:06;97678.81;;;3.77;99.66
28927;BME280;16038;47.692;9.400;2023-02-02T09:35:31;97679.91;;;3.76;99.95
28927;BME280;16038;47.692;9.400;2023-02-02T09:37:56;97678.22;;;3.80;99.55
28927;BME280;16038;47.692;9.400;2023-02-02T09:40:21;97678.44;;;3.83;99.03
28927;BME280;16038;47.692;9.400;2023-02-02T09:42:55;97685.75;;;3.83;99.20
28927;BME280;16038;47.692;9.400;2023-02-02T09:45:31;97693.78;;;3.88;98.53
28927;BME280;16038;47.692;9.400;2023-02-02T09:48:05;97698.63;;;3.91;97.72
28927;BME280;16038;47.692;9.400;2023-02-02T09:50:41;97695.69;;;3.88;97.64
28927;BME280;16038;47.692;9.400;2023-02-02T09:55:35;97704.63;;;3.88;97.43
28927;BME280;16038;47.692;9.400;2023-02-02T10:05:41;97717.88;;;3.90;97.74
28927;BME280;16038;47.692;9.400;2023-02-02T10:08:09;97715.19;;;3.90;97.81
28927;BME280;16038;47.692;9.400;2023-02-02T10:10:39;97715.19;;;3.90;97.46
28927;BME280;16038;47.692;9.400;2023-02-02T10:13:08;97726.22;;;3.93;97.63
28927;BME280;16038;47.692;9.400;2023-02-02T10:15:38;97736.28;;;3.93;97.99
28927;BME280;16038;47.692;9.400;2023-02-02T10:18:21;97718.31;;;3.97;97.33
28927;BME280;16038;47.692;9.400;2023-02-02T10:21:01;97721.72;;;4.02;97.34
28927;BME280;16038;47.692;9.400;2023-02-02T10:23:28;97730.78;;;4.12;96.90
28927;BME280;16038;47.692;9.400;2023-02-02T10:26:03;97738.50;;;4.05;96.97
28927;BME280;16038;47.692;9.400;2023-02-02T10:28:43;97731.16;;;4.05;96.54
28927;BME280;16038;47.692;9.400;2023-02-02T10:33:56;97709.00;;;4.17;96.24
28927;BME280;16038;47.692;9.400;2023-02-02T10:36:37;97721.47;;;4.18;96.38
28927;BME280;16038;47.692;9.400;2023-02-02T10:39:11;97717.25;;;4.26;96.43
28927;BME280;16038;47.692;9.400;2023-02-02T10:41:40;97709.31;;;4.29;96.51
28927;BME280;16038;47.692;9.400;2023-02-02T10:46:50;97711.41;;;4.32;97.35
28927;BME280;16038;47.692;9.400;2023-02-02T10:49:30;97706.59;;;4.29;97.48
28927;BME280;16038;47.692;9.400;2023-02-02T10:54:31;97698.25;;;4.39;97.29
28927;BME280;16038;47.692;9.400;2023-02-02T10:56:59;97701.97;;;4.44;97.00
28927;BME280;16038;47.692;9.400;2023-02-02T10:59:30;97701.47;;;4.42;97.52
28927;BME280;16038;47.692;9.400;2023-02-02T11:01:56;97699.34;;;4.38;97.70
28927;BME280;16038;47.692;9.400;2023-02-02T11:04:21;97697.03;;;4.46;97.14
28927;BME280;16038;47.692;9.400;2023-02-02T11:07:05;97698.03;;;4.50;97.49
28927;BME280;16038;47.692;9.400;2023-02-02T11:09:31;97704.25;;;4.64;96.84
28927;BME280;16038;47.692;9.400;2023-02-02T11:12:02;97705.28;;;4.68;96.70
28927;BME280;16038;47.692;9.400;2023-02-02T11:17:20;97707.59;;;4.61;96.83
28927;BME280;16038;47.692;9.400;2023-02-02T11:19:46;97702.66;;;4.63;97.29
28927;BME280;16038;47.692;9.400;2023-02-02T11:22:31;97701.84;;;4.63;97.54
28927;BME280;16038;47.692;9.400;2023-02-02T11:27:49;97701.16;;;4.57;98.18
28927;BME280;16038;47.692;9.400;2023-02-02T11:32:51;97697.66;;;4.56;98.60
28927;BME280;16038;47.692;9.400;2023-02-02T11:35:20;97703.38;;;4.55;98.45
28927;BME280;16038;47.692;9.400;2023-02-02T11:40:41;97713.53;;;4.49;98.62
28927;BME280;16038;47.692;9.400;2023-02-02T11:46:05;97702.88;;;4.53;99.85
28927;BME280;16038;47.692;9.400;2023-02-02T11:48:35;97706.47;;;4.48;100.00
28927;BME280;16038;47.692;9.400;2023-02-02T11:51:02;97702.47;;;4.46;99.86
28927;BME280;16038;47.692;9.400;2023-02-02T11:53:31;97692.91;;;4.48;98.36
28927;BME280;16038;47.692;9.400;2023-02-02T11:55:58;97694.03;;;4.61;97.89
28927;BME280;16038;47.692;9.400;2023-02-02T11:58:29;97680.28;;;4.57;98.15
28927;BME280;16038;47.692;9.400;2023-02-02T12:01:01;97687.28;;;4.58;97.80
28927;BME280;16038;47.692;9.400;2023-02-02T12:03:28;97680.47;;;4.61;97.04
28927;BME280;16038;47.692;9.400;2023-02-02T12:05:54;97677.31;;;4.68;96.80
28927;BME280;16038;47.692;9.400;2023-02-02T12:08:19;97676.34;;;4.64;96.57
28927;BME280;16038;47.692;9.400;2023-02-02T12:10:47;97667.88;;;4.65;96.52
28927;BME280;16038;47.692;9.400;2023-02-02T12:20:45;97675.00;;;4.75;95.62
28927;BME280;16038;47.692;9.400;2023-02-02T12:33:40;97679.31;;;4.90;93.82
28927;BME280;16038;47.692;9.400;2023-02-02T12:44:17;97670.63;;;5.02;93.75
28927;BME280;16038;47.692;9.400;2023-02-02T12:46:58;97670.50;;;5.07;93.79
28927;BME280;16038;47.692;9.400;2023-02-02T12:57:24;97666.81;;;5.03;94.02
28927;BME280;16038;47.692;9.400;2023-02-02T13:02:32;97663.78;;;5.04;94.64
28927;BME280;16038;47.692;9.400;2023-02-02T13:07:45;97668.19;;;5.00;95.59
28927;BME280;16038;47.692;9.400;2023-02-02T13:15:22;97663.59;;;5.01;96.16
28927;BME280;16038;47.692;9.400;2023-02-02T13:18:01;97688.03;;;5.01;96.69
28927;BME280;16038;47.692;9.400;2023-02-02T13:20:35;97687.69;;;5.02;96.64
28927;BME280;16038;47.692;9.400;2023-02-02T13:23:04;97673.75;;;4.95;97.68
28927;BME280;16038;47.692;9.400;2023-02-02T13:25:33;97672.56;;;4.87;98.05
28927;BME280;16038;47.692;9.400;2023-02-02T13:27:59;97683.91;;;4.89;98.15
28927;BME280;16038;47.692;9.400;2023-02-02T13:32:52;97684.41;;;4.91;98.60
28927;BME280;16038;47.692;9.400;2023-02-02T13:35:22;97671.97;;;4.90;98.22
28927;BME280;16038;47.692;9.400;2023-02-02T13:37:50;97674.25;;;4.97;98.81
28927;BME280;16038;47.692;9.400;2023-02-02T13:40:26;97669.25;;;4.90;99.32
28927;BME280;16038;47.692;9.400;2023-02-02T13:48:10;97680.56;;;5.06;99.17
28927;BME280;16038;47.692;9.400;2023-02-02T13:50:43;97681.66;;;5.05;99.26
28927;BME280;16038;47.692;9.400;2023-02-02T13:56:08;97692.53;;;5.05;99.34
28927;BME280;16038;47.692;9.400;2023-02-02T13:58:48;97708.22;;;5.08;99.86
28927;BME280;16038;47.692;9.400;2023-02-02T14:01:18;97709.13;;;5.04;99.49
28927;BME280;16038;47.692;9.400;2023-02-02T14:03:51;97700.75;;;5.14;98.30
28927;BME280;16038;47.692;9.400;2023-02-02T14:06:18;97707.34;;;4.99;99.53
28927;BME280;16038;47.692;9.400;2023-02-02T14:08:45;97704.63;;;4.99;99.85
28927;BME280;16038;47.692;9.400;2023-02-02T14:11:15;97712.78;;;4.99;98.93
28927;BME280;16038;47.692;9.400;2023-02-02T14:13:44;97704.63;;;4.99;98.77
28927;BME280;16038;47.692;9.400;2023-02-02T14:19:00;97726.03;;;5.01;99.11
28927;BME280;16038;47.692;9.400;2023-02-02T14:23:58;97722.81;;;4.98;99.11
28927;BME280;16038;47.692;9.400;2023-02-02T14:26:40;97722.19;;;5.02;98.57
28927;BME280;16038;47.692;9.400;2023-02-02T14:31:53;97735.19;;;5.05;97.30
28927;BME280;16038;47.692;9.400;2023-02-02T14:34:29;97737.16;;;5.13;97.19
28927;BME280;16038;47.692;9.400;2023-02-02T14:37:16;97735.78;;;5.02;96.45
28927;BME280;16038;47.692;9.400;2023-02-02T14:45:29;97743.72;;;5.12;96.33
28927;BME280;16038;47.692;9.400;2023-02-02T14:47:56;97750.88;;;5.08;96.88
28927;BME280;16038;47.692;9.400;2023-02-02T14:52:56;97753.78;;;5.11;96.60
28927;BME280;16038;47.692;9.400;2023-02-02T14:55:23;97750.69;;;5.04;96.32
28927;BME280;16038;47.692;9.400;2023-02-02T14:57:53;97747.97;;;5.04;96.16
28927;BME280;16038;47.692;9.400;2023-02-02T15:00:20;97747.03;;;5.09;95.38
28927;BME280;16038;47.692;9.400;2023-02-02T15:02:47;97757.09;;;5.08;96.16
28927;BME280;16038;47.692;9.400;2023-02-02T15:08:07;97744.41;;;5.04;95.66
28927;BME280;16038;47.692;9.400;2023-02-02T15:13:18;97760.00;;;5.12;94.88
28927;BME280;16038;47.692;9.400;2023-02-02T15:15:45;97759.22;;;5.11;95.29
28927;BME280;16038;47.692;9.400;2023-02-02T15:18:16;97774.00;;;5.05;94.42
28927;BME280;16038;47.692;9.400;2023-02-02T15:20:46;97766.34;;;5.07;95.42